Time;durP1;ratioP1;P1;durP2;ratioP2;P2;SDS_P1;SDS_P2;PMS_P1;PMS_P2;Temp;Humidity;BMP_temperature;BMP_pressure;BME280_temperature;BME280_humidity;BME280_pressure;Samples;Min_cycle;Max_cycle;Signal;HPM_P1;HPM_P2
2023/03/22 00:02:21;;;;;;;11.13;2.33;;;;;;;-143.48;91.98;118439.88;5071644;28;20052;-68
2023/03/22 00:04:47;;;;;;;9.70;2.25;;;;;;;-143.48;91.47;118439.88;5073169;28;20443;-68
2023/03/22 00:07:12;;;;;;;10.35;1.92;;;;;;;-143.48;91.62;118439.88;5072911;28;20108;-69
2023/03/22 00:09:37;;;;;;;14.30;2.30;;;;;;;-143.48;91.34;118439.88;5072975;28;20031;-68
2023/03/22 00:12:03;;;;;;;8.90;1.98;;;;;;;-143.48;90.91;118439.88;5073186;28;20016;-68
2023/03/22 00:14:28;;;;;;;9.35;1.88;;;;;;;-143.48;90.97;118439.88;5073972;28;20039;-68
2023/03/22 00:16:54;;;;;;;14.80;2.30;;;;;;;-143.48;91.36;118439.88;5072142;28;20016;-68
2023/03/22 00:19:19;;;;;;;9.25;2.40;;;;;;;-143.48;91.19;118439.88;5073517;28;20024;-68
2023/03/22 00:21:45;;;;;;;12.93;2.08;;;;;;;-143.48;90.93;118439.88;5072888;28;20024;-68
2023/03/22 00:24:11;;;;;;;15.80;2.28;;;;;;;-143.48;90.64;118439.88;5072880;28;20028;-68
2023/03/22 00:26:37;;;;;;;14.45;2.22;;;;;;;-143.48;91.18;118439.88;5072752;28;20028;-68
2023/03/22 00:29:02;;;;;;;14.95;2.50;;;;;;;-143.48;90.98;118439.88;5072850;28;20024;-68
2023/03/22 00:31:28;;;;;;;10.18;2.40;;;;;;;-143.48;90.87;118439.88;5073060;28;20059;-68
2023/03/22 00:33:53;;;;;;;12.45;2.40;;;;;;;-143.48;90.69;118439.88;5072835;28;20130;-68
2023/03/22 00:36:18;;;;;;;17.50;2.47;;;;;;;-143.48;90.60;118439.88;5071459;28;20016;-68
2023/03/22 00:38:44;;;;;;;11.25;1.92;;;;;;;-143.48;90.59;118439.88;5072722;28;20506;-68
2023/03/22 00:41:15;;;;;;;8.98;2.65;;;;;;;-143.48;90.99;118439.88;5072745;28;20016;-69
2023/03/22 00:43:41;;;;;;;7.93;1.92;;;;;;;-143.48;90.69;118439.88;5072888;28;20086;-69
2023/03/22 00:46:07;;;;;;;11.23;2.33;;;;;;;-143.48;90.45;118439.88;5071324;28;20024;-69
2023/03/22 00:48:33;;;;;;;10.48;2.10;;;;;;;-143.48;90.71;118439.88;5072509;28;20025;-69
2023/03/22 00:50:58;;;;;;;12.50;2.40;;;;;;;-143.48;90.38;118439.88;5072644;28;20388;-69
2023/03/22 00:53:24;;;;;;;9.90;1.85;;;;;;;-143.48;90.37;118439.88;5071249;28;20464;-69
2023/03/22 00:55:50;;;;;;;8.07;2.30;;;;;;;-143.48;89.90;118439.88;5072550;28;20028;-69
2023/03/22 00:58:15;;;;;;;6.43;1.90;;;;;;;-143.48;90.01;118439.88;5072526;28;20031;-69
2023/03/22 01:00:41;;;;;;;10.55;2.15;;;;;;;-143.48;89.64;118439.88;5071310;28;20055;-68
2023/03/22 01:03:07;;;;;;;13.93;2.67;;;;;;;-143.48;89.23;118439.88;5072526;28;20016;-69
2023/03/22 01:05:33;;;;;;;9.02;2.15;;;;;;;-143.48;88.98;118439.88;5072446;28;20020;-68
2023/03/22 01:08:07;;;;;;;7.60;2.22;;;;;;;-143.48;88.60;118439.88;5074617;28;20112;-68
2023/03/22 01:10:42;;;;;;;10.50;1.92;;;;;;;-143.48;88.46;118439.88;5076088;28;20476;-68
2023/03/22 01:13:09;;;;;;;14.10;2.38;;;;;;;-143.48;88.54;118439.88;5076060;28;20625;-68
2023/03/22 01:15:35;;;;;;;11.50;2.40;;;;;;;-143.48;88.17;118439.88;5075940;28;20020;-68
2023/03/22 01:18:01;;;;;;;11.32;2.50;;;;;;;-143.48;88.29;118439.88;5074612;28;20051;-68
2023/03/22 01:20:27;;;;;;;14.52;2.50;;;;;;;-143.48;88.25;118439.88;5075954;28;20495;-68
2023/03/22 01:22:52;;;;;;;20.50;3.53;;;;;;;-143.48;87.78;118439.88;5074564;28;20112;-69
2023/03/22 01:25:17;;;;;;;12.15;2.38;;;;;;;-143.48;87.91;118439.88;5075764;28;20028;-67
2023/03/22 01:27:43;;;;;;;12.52;2.50;;;;;;;-143.48;87.80;118439.88;5074450;28;20131;-67
2023/03/22 01:30:09;;;;;;;11.05;3.05;;;;;;;-143.48;87.83;118439.88;5075713;28;20106;-69
2023/03/22 01:32:35;;;;;;;10.27;2.55;;;;;;;-143.48;87.33;118439.88;5075721;28;20027;-69
2023/03/22 01:35:01;;;;;;;7.57;2.25;;;;;;;-143.48;86.93;118439.88;5075629;28;20032;-69
2023/03/22 01:37:27;;;;;;;9.65;2.30;;;;;;;-143.48;86.85;118439.88;5074390;28;20016;-69
2023/03/22 01:39:53;;;;;;;8.95;2.20;;;;;;;-143.48;86.66;118439.88;5074328;28;20417;-69
2023/03/22 01:42:21;;;;;;;10.60;2.47;;;;;;;-143.48;86.01;118439.88;5075608;28;20032;-68
2023/03/22 01:45:12;;;;;;;8.63;2.10;;;;;;;-143.48;85.97;118439.88;5074181;28;20483;-69
2023/03/22 01:47:56;;;;;;;12.30;2.25;;;;;;;-143.48;85.43;118439.88;5069590;28;20514;-68
2023/03/22 01:50:23;;;;;;;11.07;2.30;;;;;;;-143.48;85.53;118439.88;5074079;28;20039;-68
2023/03/22 01:52:51;;;;;;;10.77;2.25;;;;;;;-143.48;85.38;118439.88;5075183;28;20526;-68
2023/03/22 01:55:17;;;;;;;12.30;2.20;;;;;;;-143.48;85.00;118439.88;5075281;28;20044;-68
2023/03/22 01:57:43;;;;;;;8.88;2.03;;;;;;;-143.48;85.15;118439.88;5075218;28;20025;-67
2023/03/22 02:00:14;;;;;;;8.10;1.98;;;;;;;-143.48;84.90;118439.88;5075204;28;20032;-67
2023/03/22 02:02:40;;;;;;;7.82;1.98;;;;;;;-143.48;85.19;118439.88;5075030;28;20021;-68
2023/03/22 02:05:06;;;;;;;10.93;2.40;;;;;;;-143.48;85.14;118439.88;5074033;28;20021;-68
2023/03/22 02:07:32;;;;;;;13.27;2.50;;;;;;;-143.48;85.32;118439.88;5073618;28;20430;-68
2023/03/22 02:09:58;;;;;;;7.32;2.20;;;;;;;-143.48;85.14;118439.88;5074994;28;20058;-68
2023/03/22 02:13:06;;;;;;;8.23;2.50;;;;;;;-143.48;85.35;118439.88;5073638;28;20032;-67
2023/03/22 02:15:47;;;;;;;12.13;2.40;;;;;;;-143.48;85.73;118439.88;5073507;28;20021;-67
2023/03/22 02:18:26;;;;;;;10.02;2.40;;;;;;;-143.48;85.72;118439.88;5073063;28;20559;-68
2023/03/22 02:21:06;;;;;;;11.68;2.38;;;;;;;-143.48;86.03;118439.88;5074751;28;20032;-68
2023/03/22 02:24:02;;;;;;;9.13;2.72;;;;;;;-143.48;85.94;118439.88;5074683;28;20380;-68
2023/03/22 02:27:05;;;;;;;14.63;3.13;;;;;;;-143.48;86.87;118439.88;5073229;28;20111;-68
2023/03/22 02:29:33;;;;;;;8.98;2.58;;;;;;;-143.48;87.05;118439.88;5073226;28;20024;-69
2023/03/22 02:32:35;;;;;;;13.43;2.92;;;;;;;-143.48;87.45;118439.88;5074485;28;20422;-69
2023/03/22 02:35:19;;;;;;;14.38;3.08;;;;;;;-143.48;87.92;118439.88;5074434;28;20468;-69
2023/03/22 02:38:16;;;;;;;10.77;3.28;;;;;;;-143.48;88.34;118439.88;5073109;28;20051;-68
2023/03/22 02:41:01;;;;;;;9.38;3.00;;;;;;;-143.48;88.62;118439.88;5074407;28;20391;-68
2023/03/22 02:43:37;;;;;;;10.50;3.63;;;;;;;-143.48;89.17;118439.88;5074280;28;20024;-68
2023/03/22 02:46:14;;;;;;;9.48;3.05;;;;;;;-143.48;89.46;118439.88;5074195;28;20336;-68
2023/03/22 02:48:51;;;;;;;11.00;3.72;;;;;;;-143.48;89.89;118439.88;5074055;28;20472;-68
2023/03/22 02:51:23;;;;;;;11.20;3.58;;;;;;;-143.48;89.83;118439.88;5072795;28;20476;-68
2023/03/22 02:53:59;;;;;;;10.40;4.30;;;;;;;-143.48;90.50;118439.88;5072946;28;20463;-68
2023/03/22 02:56:38;;;;;;;17.15;4.63;;;;;;;-143.48;90.76;118439.88;5074017;28;20032;-69
2023/03/22 02:59:06;;;;;;;10.13;4.07;;;;;;;-143.48;90.98;118439.88;5073894;28;20031;-67
2023/03/22 03:01:41;;;;;;;16.10;5.13;;;;;;;-143.48;91.12;118439.88;5071135;28;20032;-67
2023/03/22 03:04:12;;;;;;;12.02;4.95;;;;;;;-143.48;91.59;118439.88;5073880;28;20039;-69
2023/03/22 03:06:44;;;;;;;11.30;5.22;;;;;;;-143.48;91.64;118439.88;5070988;28;20475;-69
2023/03/22 03:09:12;;;;;;;14.25;5.20;;;;;;;-143.48;92.02;118439.88;5070574;28;20537;-69
2023/03/22 03:11:38;;;;;;;17.05;5.97;;;;;;;-143.48;92.24;118439.88;5071925;28;20027;-69
2023/03/22 03:14:03;;;;;;;12.13;5.45;;;;;;;-143.48;92.75;118439.88;5070291;28;20032;-69
2023/03/22 03:16:33;;;;;;;20.42;6.43;;;;;;;-143.48;93.28;118439.88;5071643;28;20383;-68
2023/03/22 03:19:20;;;;;;;15.70;6.88;;;;;;;-143.48;93.55;118439.88;5070194;28;20044;-68
2023/03/22 03:22:07;;;;;;;15.93;6.50;;;;;;;-143.48;93.78;118439.88;5071611;28;20027;-68
2023/03/22 03:24:59;;;;;;;14.30;6.45;;;;;;;-143.48;93.79;118439.88;5071847;28;20099;-68
2023/03/22 03:27:39;;;;;;;16.60;7.85;;;;;;;-143.48;94.04;118439.88;5073364;28;20029;-68
2023/03/22 03:30:15;;;;;;;16.23;7.45;;;;;;;-143.48;94.38;118439.88;5071735;28;20024;-68
2023/03/22 03:32:51;;;;;;;17.52;7.93;;;;;;;-143.48;94.64;118439.88;5073419;28;20429;-68
2023/03/22 03:35:28;;;;;;;16.08;7.88;;;;;;;-143.48;94.61;118439.88;5073400;28;20028;-68
2023/03/22 03:38:02;;;;;;;20.77;8.55;;;;;;;-143.48;94.98;118439.88;5073377;28;20021;-68
2023/03/22 03:40:39;;;;;;;17.92;7.95;;;;;;;-143.48;95.08;118439.88;5073342;28;20105;-68
2023/03/22 03:43:05;;;;;;;20.25;8.20;;;;;;;-143.48;94.90;118439.88;5073375;28;20491;-68
2023/03/22 03:45:33;;;;;;;18.33;8.32;;;;;;;-143.48;95.00;118439.88;5071973;28;20032;-68
2023/03/22 03:48:05;;;;;;;17.13;7.75;;;;;;;-143.48;94.98;118439.88;5072154;28;20124;-69
2023/03/22 03:50:30;;;;;;;20.13;8.43;;;;;;;-143.48;94.79;118439.88;5073168;28;20028;-68
2023/03/22 03:52:56;;;;;;;18.98;8.85;;;;;;;-143.48;94.96;118439.88;5073057;28;20408;-68
2023/03/22 03:55:22;;;;;;;22.38;9.20;;;;;;;-143.48;95.09;118439.88;5073366;28;20040;-75
2023/03/22 03:57:47;;;;;;;19.60;8.48;;;;;;;-143.48;95.00;118439.88;5072020;28;20021;-75
2023/03/22 04:00:13;;;;;;;19.23;8.80;;;;;;;-143.48;95.39;118439.88;5072133;28;20025;-75
2023/03/22 04:02:42;;;;;;;17.77;8.13;;;;;;;-143.48;95.44;118439.88;5074005;28;20032;-74
2023/03/22 04:05:09;;;;;;;15.85;8.65;;;;;;;-143.48;95.16;118439.88;5074308;28;20549;-74
2023/03/22 04:07:35;;;;;;;19.20;8.27;;;;;;;-143.48;95.18;118439.88;5076774;28;20405;-74
2023/03/22 04:10:01;;;;;;;23.25;8.77;;;;;;;-143.48;95.10;118439.88;5076161;28;20040;-75
2023/03/22 04:12:26;;;;;;;19.83;8.60;;;;;;;-143.48;95.26;118439.88;5077261;28;20028;-74
2023/03/22 04:14:51;;;;;;;20.15;8.35;;;;;;;-143.48;95.25;118439.88;5072826;28;20043;-75
2023/03/22 04:17:17;;;;;;;22.33;8.15;;;;;;;-143.48;95.12;118439.88;5072410;28;20146;-75
2023/03/22 04:19:44;;;;;;;17.83;9.05;;;;;;;-143.48;95.41;118439.88;5071731;28;20020;-75
2023/03/22 04:22:13;;;;;;;20.02;8.52;;;;;;;-143.48;95.25;118439.88;5073103;28;20031;-76
2023/03/22 04:24:40;;;;;;;20.27;9.02;;;;;;;-143.48;95.59;118439.88;5073196;28;20028;-76
2023/03/22 04:27:07;;;;;;;19.30;9.10;;;;;;;-143.48;95.15;118439.88;5071941;28;20086;-74
2023/03/22 04:29:35;;;;;;;20.38;8.57;;;;;;;-143.48;95.13;118439.88;5071850;28;20052;-74
2023/03/22 04:32:01;;;;;;;23.30;8.27;;;;;;;-143.48;95.11;118439.88;5073029;28;20518;-76
2023/03/22 04:34:26;;;;;;;18.92;8.20;;;;;;;-143.48;95.28;118439.88;5071653;28;20059;-75
2023/03/22 04:36:51;;;;;;;17.05;7.88;;;;;;;-143.48;95.08;118439.88;5072785;28;20052;-75
2023/03/22 04:39:17;;;;;;;30.25;9.23;;;;;;;-143.48;95.12;118439.88;5072776;28;20454;-74
2023/03/22 04:41:42;;;;;;;18.92;8.63;;;;;;;-143.48;95.13;118439.88;5076047;28;20025;-74
2023/03/22 04:44:08;;;;;;;18.10;8.50;;;;;;;-143.48;95.10;118439.88;5075327;28;20503;-75
2023/03/22 04:46:35;;;;;;;17.40;8.45;;;;;;;-143.48;94.82;118439.88;5075205;28;20016;-74
2023/03/22 04:49:00;;;;;;;15.93;8.63;;;;;;;-143.48;94.49;118439.88;5076295;28;20036;-74
2023/03/22 04:51:26;;;;;;;19.55;8.98;;;;;;;-143.48;94.34;118439.88;5075139;28;20073;-74
2023/03/22 04:53:52;;;;;;;18.48;8.00;;;;;;;-143.48;94.50;118439.88;5075063;28;20036;-74
2023/03/22 04:56:18;;;;;;;18.48;8.35;;;;;;;-143.48;94.27;118439.88;5076398;28;20032;-75
2023/03/22 04:58:44;;;;;;;16.20;8.10;;;;;;;-143.48;94.33;118439.88;5076419;28;20017;-76
2023/03/22 05:01:11;;;;;;;18.27;7.78;;;;;;;-143.48;94.05;118439.88;5075049;28;20025;-75
2023/03/22 05:03:36;;;;;;;19.27;8.40;;;;;;;-143.48;94.07;118439.88;5076331;28;20024;-74
2023/03/22 05:06:05;;;;;;;17.67;7.93;;;;;;;-143.48;94.28;118439.88;5075591;28;20021;-74
2023/03/22 05:08:31;;;;;;;18.45;7.95;;;;;;;-143.48;94.38;118439.88;5075226;28;20078;-76
2023/03/22 05:10:58;;;;;;;20.00;7.60;;;;;;;-143.48;94.33;118439.88;5075201;28;20029;-73
2023/03/22 05:13:25;;;;;;;16.73;7.78;;;;;;;-143.48;93.74;118439.88;5076430;28;20024;-75
2023/03/22 05:15:51;;;;;;;19.38;7.55;;;;;;;-143.48;93.89;118439.88;5075883;28;20082;-75
2023/03/22 05:18:23;;;;;;;18.55;7.88;;;;;;;-143.48;94.00;118439.88;5075941;28;20020;-75
2023/03/22 05:20:49;;;;;;;21.40;7.18;;;;;;;-143.48;93.97;118439.88;5075873;28;20143;-75
2023/03/22 05:23:17;;;;;;;22.30;7.53;;;;;;;-143.48;93.64;118439.88;5075919;28;20029;-76
2023/03/22 05:25:45;;;;;;;17.52;7.90;;;;;;;-143.48;93.85;118439.88;5075893;28;20025;-76
2023/03/22 05:28:13;;;;;;;20.73;7.32;;;;;;;-143.48;94.01;118439.88;5074519;28;20056;-75
2023/03/22 05:30:39;;;;;;;14.70;6.82;;;;;;;-143.48;93.97;118439.88;5075855;28;20036;-75
2023/03/22 05:33:05;;;;;;;16.42;7.28;;;;;;;-143.48;93.86;118439.88;5076477;28;20028;-75
2023/03/22 05:35:33;;;;;;;18.38;7.20;;;;;;;-143.48;93.62;118439.88;5075508;28;20448;-75
2023/03/22 05:37:59;;;;;;;16.73;7.00;;;;;;;-143.48;93.63;118439.88;5074103;28;20024;-75
2023/03/22 05:40:25;;;;;;;18.67;6.63;;;;;;;-143.48;92.68;118439.88;5075617;28;20503;-76
2023/03/22 05:42:51;;;;;;;15.60;6.40;;;;;;;-143.48;92.73;118439.88;5074051;28;20083;-75
2023/03/22 05:45:17;;;;;;;21.15;6.93;;;;;;;-143.48;92.81;118439.88;5074267;28;20062;-76
2023/03/22 05:47:42;;;;;;;16.02;6.05;;;;;;;-143.48;92.61;118439.88;5075333;28;20403;-76
2023/03/22 05:50:10;;;;;;;16.10;6.47;;;;;;;-143.48;92.30;118439.88;5075405;28;20036;-75
2023/03/22 05:52:35;;;;;;;12.75;6.18;;;;;;;-143.48;92.47;118439.88;5074280;28;20049;-76
2023/03/22 05:55:01;;;;;;;11.65;6.05;;;;;;;-143.48;92.39;118439.88;5074049;28;20024;-75
2023/03/22 05:57:28;;;;;;;15.82;6.50;;;;;;;-143.48;92.34;118439.88;5075581;28;20017;-75
2023/03/22 05:59:54;;;;;;;16.13;6.03;;;;;;;-143.48;92.08;118439.88;5075199;28;20048;-74
2023/03/22 06:02:20;;;;;;;15.15;6.10;;;;;;;-143.48;92.03;118439.88;5073938;28;20020;-75
2023/03/22 06:04:45;;;;;;;17.98;6.68;;;;;;;-143.48;91.75;118439.88;5073738;28;20129;-75
2023/03/22 06:07:12;;;;;;;12.95;5.53;;;;;;;-143.48;91.23;118439.88;5073679;28;20047;-75
2023/03/22 06:09:37;;;;;;;14.48;5.60;;;;;;;-143.48;91.38;118439.88;5075059;28;20066;-75
2023/03/22 06:12:03;;;;;;;16.40;5.50;;;;;;;-143.48;91.13;118439.88;5075376;28;20109;-76
2023/03/22 06:14:28;;;;;;;16.65;5.75;;;;;;;-143.48;90.33;118439.88;5074505;28;20035;-75
2023/03/22 06:16:54;;;;;;;14.82;5.30;;;;;;;-143.48;89.99;118439.88;5076327;28;20023;-76
2023/03/22 06:19:19;;;;;;;13.30;5.22;;;;;;;-143.48;89.39;118439.88;5076430;28;20021;-74
2023/03/22 06:21:45;;;;;;;16.02;5.25;;;;;;;-143.48;89.23;118439.88;5077699;28;20058;-74
2023/03/22 06:24:10;;;;;;;9.40;4.53;;;;;;;-143.48;89.03;118439.88;5078330;28;20017;-75
2023/03/22 06:26:35;;;;;;;16.38;5.28;;;;;;;-143.48;88.64;118439.88;5076134;28;20475;-74
2023/03/22 06:29:02;;;;;;;15.05;4.50;;;;;;;-143.48;88.15;118439.88;5074786;28;20021;-75
2023/03/22 06:31:28;;;;;;;14.20;4.43;;;;;;;-143.48;88.40;118439.88;5073363;28;20024;-75
2023/03/22 06:33:53;;;;;;;14.98;4.90;;;;;;;-143.48;88.34;118439.88;5074690;28;20028;-75
2023/03/22 06:36:19;;;;;;;12.15;4.38;;;;;;;-143.48;87.54;118439.88;5074636;28;20111;-75
2023/03/22 06:38:44;;;;;;;15.48;4.65;;;;;;;-143.48;87.23;118439.88;5074438;28;20095;-75
2023/03/22 06:41:10;;;;;;;13.05;4.30;;;;;;;-143.48;87.00;118439.88;5074432;28;20016;-74
2023/03/22 06:43:35;;;;;;;9.48;3.97;;;;;;;-143.48;86.72;118439.88;5074376;28;20035;-75
2023/03/22 06:46:00;;;;;;;14.63;3.95;;;;;;;-143.48;86.00;118439.88;5074171;28;20095;-76
2023/03/22 06:48:26;;;;;;;10.88;3.75;;;;;;;-143.48;85.70;118439.88;5072717;28;20480;-75
2023/03/22 06:50:51;;;;;;;13.55;4.63;;;;;;;-143.48;85.50;118439.88;5074092;28;20021;-75
2023/03/22 06:53:16;;;;;;;12.50;3.63;;;;;;;-143.48;84.82;118439.88;5072659;28;20097;-75
2023/03/22 06:55:42;;;;;;;10.68;3.60;;;;;;;-143.48;85.07;118439.88;5073994;28;20059;-74
2023/03/22 06:58:07;;;;;;;10.48;3.45;;;;;;;-143.48;84.94;118439.88;5072866;28;20020;-75
2023/03/22 07:00:33;;;;;;;12.15;3.70;;;;;;;-143.48;84.94;118439.88;5073989;28;20032;-74
2023/03/22 07:02:59;;;;;;;15.18;3.30;;;;;;;-143.48;84.87;118439.88;5073818;28;20025;-74
2023/03/22 07:05:24;;;;;;;9.80;3.30;;;;;;;-143.48;84.81;118439.88;5073242;28;20032;-75
2023/03/22 07:07:49;;;;;;;9.23;3.20;;;;;;;-143.48;85.24;118439.88;5072419;28;20032;-75
2023/03/22 07:10:15;;;;;;;11.35;3.28;;;;;;;-143.48;85.14;118439.88;5073780;28;20024;-75
2023/03/22 07:12:40;;;;;;;15.63;3.65;;;;;;;-143.48;85.40;118439.88;5073654;28;20073;-75
2023/03/22 07:15:06;;;;;;;14.25;3.50;;;;;;;-143.48;85.27;118439.88;5073900;28;20035;-75
2023/03/22 07:17:32;;;;;;;13.82;3.22;;;;;;;-143.48;84.75;118439.88;5073404;28;20095;-74
2023/03/22 07:19:57;;;;;;;14.55;3.38;;;;;;;-143.48;85.06;118439.88;5073587;28;20028;-75
2023/03/22 07:22:23;;;;;;;12.00;2.97;;;;;;;-143.48;85.14;118439.88;5073648;28;20031;-75
2023/03/22 07:24:49;;;;;;;13.93;3.33;;;;;;;-143.48;84.84;118439.88;5072344;28;20039;-76
2023/03/22 07:27:15;;;;;;;11.40;3.17;;;;;;;-143.48;83.69;118439.88;5072043;28;20043;-75
2023/03/22 07:29:40;;;;;;;12.45;3.05;;;;;;;-143.48;82.49;118439.88;5073346;28;20025;-75
2023/03/22 07:32:06;;;;;;;8.90;2.70;;;;;;;-143.48;80.47;118439.88;5073816;28;20414;-74
2023/03/22 07:34:31;;;;;;;15.63;2.78;;;;;;;-143.48;80.10;118439.88;5073873;28;20048;-75
2023/03/22 07:36:56;;;;;;;16.02;3.17;;;;;;;-143.48;81.29;118439.88;5072692;28;20490;-76
2023/03/22 07:39:23;;;;;;;16.45;2.65;;;;;;;-143.48;81.43;118439.88;5073804;28;20020;-75
2023/03/22 07:41:49;;;;;;;10.93;2.65;;;;;;;-143.48;81.56;118439.88;5074026;28;20039;-76
2023/03/22 07:44:15;;;;;;;12.60;2.55;;;;;;;-143.48;80.74;118439.88;5073639;28;20028;-75
2023/03/22 07:46:40;;;;;;;15.07;2.72;;;;;;;-143.48;81.31;118439.88;5072684;28;20020;-76
2023/03/22 07:49:05;;;;;;;7.35;2.42;;;;;;;-143.48;80.71;118439.88;5072351;28;20375;-75
2023/03/22 07:51:30;;;;;;;16.00;2.38;;;;;;;-143.48;81.42;118439.88;5073304;28;20031;-75
2023/03/22 07:53:56;;;;;;;7.40;2.13;;;;;;;-143.48;80.09;118439.88;5073166;28;20092;-76
2023/03/22 07:56:21;;;;;;;13.73;2.78;;;;;;;-143.48;79.19;118439.88;5073554;28;20021;-75
2023/03/22 07:58:46;;;;;;;9.55;2.50;;;;;;;-143.48;80.21;118439.88;5073538;28;20055;-75
2023/03/22 08:01:12;;;;;;;15.35;2.80;;;;;;;-143.48;80.25;118439.88;5073532;28;20482;-75
2023/03/22 08:03:38;;;;;;;13.18;2.33;;;;;;;-143.48;80.13;118439.88;5073613;28;20025;-75
2023/03/22 08:06:06;;;;;;;13.25;2.42;;;;;;;-143.48;80.66;118439.88;5072491;28;20078;-76
2023/03/22 08:08:32;;;;;;;14.02;2.75;;;;;;;-143.48;80.04;118439.88;5072044;28;20490;-76
2023/03/22 08:10:58;;;;;;;9.70;2.50;;;;;;;-143.48;79.72;118439.88;5072983;28;20031;-75
2023/03/22 08:13:24;;;;;;;12.57;2.63;;;;;;;-143.48;79.77;118439.88;5072879;28;20396;-70
2023/03/22 08:15:50;;;;;;;16.67;2.97;;;;;;;-143.48;80.47;118439.88;5076120;28;20021;-70
2023/03/22 08:18:16;;;;;;;14.00;3.03;;;;;;;-143.48;80.24;118439.88;5076254;28;20035;-69
2023/03/22 08:20:44;;;;;;;13.35;2.65;;;;;;;-143.48;80.13;118439.88;5077581;28;20024;-70
2023/03/22 08:23:14;;;;;;;21.02;2.75;;;;;;;-143.48;80.35;118439.88;5075910;28;20496;-70
2023/03/22 08:25:41;;;;;;;9.40;2.90;;;;;;;-143.48;79.54;118439.88;5075806;28;20021;-69
2023/03/22 08:28:06;;;;;;;10.40;2.50;;;;;;;-143.48;80.63;118439.88;5077511;28;20029;-70
2023/03/22 08:30:32;;;;;;;10.45;2.92;;;;;;;-143.48;81.60;118439.88;5077343;28;20027;-70
2023/03/22 08:32:57;;;;;;;11.95;2.72;;;;;;;-143.48;81.99;118439.88;5076982;28;20467;-69
2023/03/22 08:35:22;;;;;;;8.30;2.72;;;;;;;-143.48;81.68;118439.88;5077148;28;20090;-70
2023/03/22 08:37:52;;;;;;;16.15;3.25;;;;;;;-143.48;82.12;118439.88;5075582;28;20048;-70
2023/03/22 08:40:17;;;;;;;13.57;3.17;;;;;;;-143.48;82.30;118439.88;5075531;28;20025;-72
2023/03/22 08:42:43;;;;;;;17.90;3.10;;;;;;;-143.48;82.23;118439.88;5074071;28;20025;-70
2023/03/22 08:45:09;;;;;;;8.52;2.33;;;;;;;-143.48;81.16;118439.88;5075632;28;20052;-69
2023/03/22 08:47:34;;;;;;;15.80;2.97;;;;;;;-143.48;81.24;118439.88;5075463;28;20503;-70
2023/03/22 08:50:00;;;;;;;11.75;2.75;;;;;;;-143.48;81.15;118439.88;5074015;28;20029;-69
2023/03/22 08:52:25;;;;;;;8.75;2.20;;;;;;;-143.48;81.63;118439.88;5076494;28;20052;-69
2023/03/22 08:54:52;;;;;;;11.38;2.58;;;;;;;-143.48;82.02;118439.88;5076823;28;20020;-70
2023/03/22 08:57:20;;;;;;;9.05;2.53;;;;;;;-143.48;83.06;118439.88;5076979;28;20020;-70
2023/03/22 08:59:45;;;;;;;17.10;3.10;;;;;;;-143.48;83.84;118439.88;5076565;28;20031;-70
2023/03/22 09:02:11;;;;;;;16.20;3.50;;;;;;;-143.48;84.82;118439.88;5076280;28;20024;-70
2023/03/22 09:04:36;;;;;;;14.15;2.60;;;;;;;-143.48;85.27;118439.88;5076320;28;20020;-69
2023/03/22 09:07:01;;;;;;;11.30;2.95;;;;;;;-143.48;86.40;118439.88;5076045;28;20036;-69
2023/03/22 09:09:27;;;;;;;10.57;2.70;;;;;;;-143.48;87.65;118439.88;5074737;28;20024;-69
2023/03/22 09:11:52;;;;;;;12.02;3.20;;;;;;;-143.48;88.74;118439.88;5075872;28;20100;-70
2023/03/22 09:14:17;;;;;;;11.80;3.10;;;;;;;-143.48;88.87;118439.88;5075844;28;20016;-69
2023/03/22 09:16:43;;;;;;;13.98;2.97;;;;;;;-143.48;89.37;118439.88;5075784;28;20512;-70
2023/03/22 09:19:08;;;;;;;17.63;3.30;;;;;;;-143.48;90.01;118439.88;5074358;28;20120;-69
2023/03/22 09:21:34;;;;;;;12.00;3.67;;;;;;;-143.48;89.76;118439.88;5074331;28;20024;-70
2023/03/22 09:23:59;;;;;;;9.20;3.00;;;;;;;-143.48;90.00;118439.88;5074290;28;20035;-69
2023/03/22 09:26:25;;;;;;;14.65;3.08;;;;;;;-143.48;91.28;118439.88;5074955;28;20467;-70
2023/03/22 09:28:51;;;;;;;10.23;2.90;;;;;;;-143.48;92.13;118439.88;5075265;28;20070;-70
2023/03/22 09:31:16;;;;;;;12.50;3.03;;;;;;;-143.48;91.99;118439.88;5075665;28;20016;-70
2023/03/22 09:33:42;;;;;;;11.68;2.55;;;;;;;-143.48;91.81;118439.88;5075659;28;20530;-70
2023/03/22 09:36:08;;;;;;;10.50;3.10;;;;;;;-143.48;92.94;118439.88;5074374;28;20029;-70
2023/03/22 09:38:35;;;;;;;15.75;3.30;;;;;;;-143.48;93.14;118439.88;5075466;28;20070;-70
2023/03/22 09:41:15;;;;;;;10.15;2.75;;;;;;;-143.48;93.50;118439.88;5075549;28;20078;-70
2023/03/22 09:43:57;;;;;;;14.35;3.40;;;;;;;-143.48;94.27;118439.88;5075240;28;20027;-70
2023/03/22 09:46:32;;;;;;;11.30;3.10;;;;;;;-143.48;94.60;118439.88;5075351;28;20115;-70
2023/03/22 09:49:03;;;;;;;11.02;3.03;;;;;;;-143.48;95.04;118439.88;5075090;28;20028;-70
2023/03/22 09:51:47;;;;;;;16.70;3.17;;;;;;;-143.48;95.46;118439.88;5075025;28;20032;-71
2023/03/22 09:54:18;;;;;;;10.20;3.00;;;;;;;-143.48;95.52;118439.88;5074403;28;20385;-70
2023/03/22 09:56:53;;;;;;;13.88;3.17;;;;;;;-143.48;95.98;118439.88;5073129;28;20429;-69
2023/03/22 09:59:25;;;;;;;11.13;3.53;;;;;;;-143.48;96.06;118439.88;5074534;28;20025;-69
2023/03/22 10:01:57;;;;;;;9.07;3.00;;;;;;;-143.48;96.04;118439.88;5073289;28;20033;-70
2023/03/22 10:04:37;;;;;;;14.05;3.20;;;;;;;-143.48;96.62;118439.88;5074473;28;20103;-70
2023/03/22 10:07:14;;;;;;;10.38;2.83;;;;;;;-143.48;95.57;118439.88;5073514;28;20032;-70
2023/03/22 10:09:40;;;;;;;11.82;3.33;;;;;;;-143.48;96.58;118439.88;5074903;28;20016;-70
2023/03/22 10:12:17;;;;;;;14.88;3.97;;;;;;;-143.48;95.93;118439.88;5074862;28;20055;-69
2023/03/22 10:14:50;;;;;;;15.00;3.40;;;;;;;-143.48;96.80;118439.88;5074827;28;20074;-70
2023/03/22 10:17:22;;;;;;;11.32;3.15;;;;;;;-143.48;96.57;118439.88;5073340;28;20027;-70
2023/03/22 10:19:56;;;;;;;11.45;3.15;;;;;;;-143.48;96.76;118439.88;5074878;28;20028;-70
2023/03/22 10:22:29;;;;;;;10.65;3.08;;;;;;;-143.48;96.32;118439.88;5074691;28;20028;-70
2023/03/22 10:24:56;;;;;;;15.68;3.03;;;;;;;-143.48;96.49;118439.88;5074707;28;20150;-70
2023/03/22 10:27:25;;;;;;;11.60;2.88;;;;;;;-143.48;96.44;118439.88;5074453;28;20472;-71
2023/03/22 10:30:19;;;;;;;14.15;3.40;;;;;;;-143.48;97.06;118439.88;5073181;28;20027;-70
2023/03/22 10:32:50;;;;;;;12.82;2.85;;;;;;;-143.48;97.72;118439.88;5074410;28;20111;-70
2023/03/22 10:35:16;;;;;;;8.93;3.10;;;;;;;-143.48;97.75;118439.88;5074047;28;20032;-70
2023/03/22 10:37:48;;;;;;;9.45;2.90;;;;;;;-143.48;97.46;118439.88;5071683;28;20365;-70
2023/03/22 10:40:19;;;;;;;9.80;3.00;;;;;;;-143.48;97.42;118439.88;5072216;28;20024;-69
2023/03/22 10:42:54;;;;;;;7.93;2.60;;;;;;;-143.48;97.24;118439.88;5072345;28;20455;-70
2023/03/22 10:45:21;;;;;;;12.95;3.03;;;;;;;-143.48;97.51;118439.88;5072273;28;20020;-70
2023/03/22 10:47:56;;;;;;;12.23;2.70;;;;;;;-143.48;97.14;118439.88;5072130;28;20494;-70
2023/03/22 10:50:28;;;;;;;11.98;3.03;;;;;;;-143.48;97.05;118439.88;5072067;28;20498;-70
2023/03/22 10:52:56;;;;;;;9.60;2.58;;;;;;;-143.48;96.75;118439.88;5070853;28;20151;-70
2023/03/22 10:55:23;;;;;;;7.85;2.33;;;;;;;-143.48;96.60;118439.88;5074032;28;20028;-70
2023/03/22 10:58:19;;;;;;;12.75;2.67;;;;;;;-143.48;95.00;118439.88;5072612;28;20028;-71
2023/03/22 11:00:58;;;;;;;9.25;2.92;;;;;;;-143.48;94.38;118439.88;5072583;28;20507;-71
2023/03/22 11:03:35;;;;;;;9.00;2.65;;;;;;;-143.48;95.83;118439.88;5074964;28;20103;-71
2023/03/22 11:06:19;;;;;;;11.18;2.90;;;;;;;-143.48;95.93;118439.88;5073951;28;20029;-72
2023/03/22 11:08:51;;;;;;;11.93;2.88;;;;;;;-143.48;96.29;118439.88;5072468;28;20055;-72
2023/03/22 11:11:33;;;;;;;14.43;2.90;;;;;;;-143.48;96.16;118439.88;5072477;28;20489;-70